createdAt,value
2022-10-24T00:00:59.412Z,1000.6
2022-10-24T00:02:02.248Z,1000.6
2022-10-24T00:03:05.091Z,1000.5
2022-10-24T00:04:08.967Z,1000.6
2022-10-24T00:05:11.478Z,1000.6
2022-10-24T00:06:15.198Z,1000.6
2022-10-24T00:07:18.642Z,1000.6
2022-10-24T00:08:21.096Z,1000.7
2022-10-24T00:09:24.153Z,1000.7
2022-10-24T00:10:26.921Z,1000.7
2022-10-24T00:11:29.790Z,1000.8
2022-10-24T00:12:32.857Z,1000.7
2022-10-24T00:13:35.850Z,1000.8
2022-10-24T00:14:39.225Z,1000.8
2022-10-24T00:15:43.373Z,1000.8
2022-10-24T00:16:46.125Z,1000.9
2022-10-24T00:17:49.394Z,1000.9
2022-10-24T00:18:52.184Z,1001
2022-10-24T00:19:54.969Z,1001
2022-10-24T00:20:57.485Z,1001
2022-10-24T00:21:59.729Z,1001.1
2022-10-24T00:23:02.258Z,1001.1
2022-10-24T00:24:05.325Z,1001.1
2022-10-24T00:25:08.230Z,1001.1
2022-10-24T00:26:10.468Z,1001
2022-10-24T00:27:12.510Z,1001.2
2022-10-24T00:28:15.411Z,1001.1
2022-10-24T00:29:19.173Z,1001.2
2022-10-24T00:30:22.588Z,1001.1
2022-10-24T00:31:25.477Z,1001.1
2022-10-24T00:32:28.275Z,1001.1
2022-10-24T00:33:31.646Z,1001.1
2022-10-24T00:34:35.176Z,1001.1
2022-10-24T00:35:38.530Z,1001.1
2022-10-24T00:36:41.606Z,1001.1
2022-10-24T00:37:44.740Z,1001.1
2022-10-24T00:38:49.248Z,1001.1
2022-10-24T00:39:51.914Z,1001
2022-10-24T00:40:54.705Z,1001
2022-10-24T00:41:57.687Z,1001
2022-10-24T00:43:01.076Z,1001
2022-10-24T00:44:04.342Z,1000.9
2022-10-24T00:45:06.809Z,1001
2022-10-24T00:46:10.214Z,1001
2022-10-24T00:47:14.353Z,1000.9
2022-10-24T00:48:17.696Z,1000.9
2022-10-24T00:49:20.348Z,1000.8
2022-10-24T00:50:23.037Z,1000.8
2022-10-24T00:51:25.565Z,1000.8
2022-10-24T00:52:29.059Z,1000.9
2022-10-24T00:53:31.881Z,1000.8
2022-10-24T00:54:34.317Z,1000.8
2022-10-24T00:55:36.752Z,1000.8
2022-10-24T00:56:39.740Z,1000.8
2022-10-24T00:57:43.105Z,1000.8
2022-10-24T00:58:48.024Z,1000.8
2022-10-24T00:59:51.414Z,1000.7
2022-10-24T01:00:54.344Z,1000.7
2022-10-24T01:01:58.157Z,1000.7
2022-10-24T01:03:01.655Z,1000.7
2022-10-24T01:04:04.753Z,1000.7
2022-10-24T01:05:07.848Z,1000.7
2022-10-24T01:06:10.830Z,1000.7
2022-10-24T01:07:14.278Z,1000.6
2022-10-24T01:08:17.646Z,1000.6
2022-10-24T01:09:21.345Z,1000.7
2022-10-24T01:10:24.859Z,1000.6
2022-10-24T01:11:28.136Z,1000.7
2022-10-24T01:12:30.567Z,1000.7
2022-10-24T01:13:33.641Z,1000.7
2022-10-24T01:14:36.433Z,1000.8
2022-10-24T01:15:38.868Z,1000.7
2022-10-24T01:16:41.731Z,1000.7
2022-10-24T01:17:44.842Z,1000.8
2022-10-24T01:18:48.281Z,1000.7
2022-10-24T01:19:51.671Z,1000.7
2022-10-24T01:20:54.483Z,1000.7
2022-10-24T01:21:57.601Z,1000.7
2022-10-24T01:23:00.672Z,1000.6
2022-10-24T01:24:03.271Z,1000.6
2022-10-24T01:25:06.414Z,1000.6
2022-10-24T01:26:09.201Z,1000.5
2022-10-24T01:27:12.327Z,1000.5
2022-10-24T01:28:16.482Z,1000.4
2022-10-24T01:29:19.949Z,1000.4
2022-10-24T01:30:23.124Z,1000.4
2022-10-24T01:31:26.574Z,1000.4
2022-10-24T01:32:28.443Z,1000.4
2022-10-24T01:33:31.813Z,1000.4
2022-10-24T01:34:35.503Z,1000.4
2022-10-24T01:35:38.358Z,1000.4
2022-10-24T01:36:41.472Z,1000.4
2022-10-24T01:37:44.715Z,1000.3
2022-10-24T01:38:49.674Z,1000.3
2022-10-24T01:39:52.737Z,1000.3
2022-10-24T01:40:55.911Z,1000.3
2022-10-24T01:41:59.510Z,1000.3
2022-10-24T01:43:02.314Z,1000.3
2022-10-24T01:44:05.720Z,1000.2
2022-10-24T01:45:08.782Z,1000.2
2022-10-24T01:46:11.804Z,1000.2
2022-10-24T01:47:15.170Z,1000.3
2022-10-24T01:48:18.989Z,1000.3
2022-10-24T01:49:22.748Z,1000.3
2022-10-24T01:50:26.884Z,1000.3
2022-10-24T01:51:30.027Z,1000.2
2022-10-24T01:52:33.463Z,1000.2
2022-10-24T01:53:36.162Z,1000.2
2022-10-24T01:54:39.328Z,1000.2
2022-10-24T01:55:42.667Z,1000.3
2022-10-24T01:56:45.466Z,1000.3
2022-10-24T01:57:48.534Z,1000.3
2022-10-24T01:58:51.948Z,1000.3
2022-10-24T01:59:54.648Z,1000.4
2022-10-24T02:00:56.886Z,1000.3
2022-10-24T02:01:59.790Z,1000.3
2022-10-24T02:03:02.576Z,1000.3
2022-10-24T02:04:06.581Z,1000.2
2022-10-24T02:05:10.070Z,1000.2
2022-10-24T02:06:13.782Z,1000.2
2022-10-24T02:07:16.846Z,1000.2
2022-10-24T02:08:20.006Z,1000.2
2022-10-24T02:09:22.644Z,1000.2
2022-10-24T02:10:25.993Z,1000.2
2022-10-24T02:11:28.147Z,1000.1
2022-10-24T02:12:30.578Z,1000.1
2022-10-24T02:13:33.340Z,1000.1
2022-10-24T02:14:36.485Z,1000.1
2022-10-24T02:15:39.273Z,1000.1
2022-10-24T02:16:42.888Z,1000.1
2022-10-24T02:17:46.965Z,1000
2022-10-24T02:18:50.793Z,1000
2022-10-24T02:19:53.853Z,1000
2022-10-24T02:20:57.023Z,1000
2022-10-24T02:22:00.824Z,1000
2022-10-24T02:23:04.162Z,1000
2022-10-24T02:24:07.062Z,1000
2022-10-24T02:25:10.437Z,1000.1
2022-10-24T02:26:14.154Z,1000
2022-10-24T02:27:16.873Z,1000
2022-10-24T02:28:19.580Z,1000
2022-10-24T02:29:22.838Z,1000
2022-10-24T02:30:25.971Z,1000
2022-10-24T02:31:28.838Z,1000
2022-10-24T02:32:31.724Z,1000
2022-10-24T02:33:34.155Z,1000
2022-10-24T02:34:36.672Z,1000
2022-10-24T02:35:39.492Z,1000.1
2022-10-24T02:36:42.981Z,1000.1
2022-10-24T02:37:47.488Z,1000.2
2022-10-24T02:38:50.180Z,1000.2
2022-10-24T02:39:53.305Z,1000.2
2022-10-24T02:40:56.287Z,1000.2
2022-10-24T02:41:59.502Z,1000.2
2022-10-24T02:43:02.595Z,1000.2
2022-10-24T02:44:06.321Z,1000.2
2022-10-24T02:45:09.190Z,1000.1
2022-10-24T02:46:12.139Z,1000.1
2022-10-24T02:47:15.674Z,1000.1
2022-10-24T02:48:18.186Z,1000
2022-10-24T02:49:21.170Z,1000.1
2022-10-24T02:50:24.258Z,1000.1
2022-10-24T02:51:27.343Z,1000
2022-10-24T02:52:30.720Z,1000
2022-10-24T02:53:34.441Z,1000
2022-10-24T02:54:36.390Z,1000
2022-10-24T02:55:39.116Z,1000
2022-10-24T02:56:42.190Z,999.9
2022-10-24T02:57:44.627Z,1000
2022-10-24T02:58:47.064Z,999.9
2022-10-24T02:59:50.245Z,999.9
2022-10-24T03:00:53.150Z,999.9
2022-10-24T03:01:56.054Z,999.9
2022-10-24T03:02:58.824Z,999.9
2022-10-24T03:04:02.181Z,999.9
2022-10-24T03:05:04.778Z,999.9
2022-10-24T03:06:07.215Z,1000
2022-10-24T03:07:10.015Z,999.9
2022-10-24T03:08:13.493Z,999.9
2022-10-24T03:09:17.360Z,1000
2022-10-24T03:10:20.431Z,999.9
2022-10-24T03:11:23.549Z,999.9
2022-10-24T03:12:26.332Z,999.9
2022-10-24T03:13:29.120Z,999.9
2022-10-24T03:14:32.266Z,999.9
2022-10-24T03:15:34.837Z,999.9
2022-10-24T03:16:38.064Z,999.9
2022-10-24T03:17:40.777Z,999.9
2022-10-24T03:18:44.640Z,999.9
2022-10-24T03:19:47.444Z,999.8
2022-10-24T03:20:50.894Z,999.8
2022-10-24T03:21:53.605Z,999.9
2022-10-24T03:22:56.671Z,999.8
2022-10-24T03:24:00.736Z,999.9
2022-10-24T03:25:04.933Z,999.9
2022-10-24T03:26:08.266Z,999.8
2022-10-24T03:27:12.073Z,999.8
2022-10-24T03:28:15.113Z,999.8
2022-10-24T03:29:17.633Z,999.8
2022-10-24T03:30:20.351Z,999.8
2022-10-24T03:31:22.504Z,999.8
2022-10-24T03:33:29.453Z,999.8
2022-10-24T03:34:32.122Z,999.8
2022-10-24T03:35:35.113Z,999.9
2022-10-24T03:36:38.068Z,999.8
2022-10-24T03:37:41.138Z,999.8
2022-10-24T03:38:44.208Z,999.8
2022-10-24T03:39:47.602Z,999.8
2022-10-24T03:40:51.521Z,999.8
2022-10-24T03:41:54.065Z,999.8
2022-10-24T03:42:57.169Z,999.8
2022-10-24T03:44:00.695Z,999.7
2022-10-24T03:45:02.929Z,999.7
2022-10-24T03:46:05.914Z,999.7
2022-10-24T03:47:08.424Z,999.7
2022-10-24T03:48:11.770Z,999.6
2022-10-24T03:49:14.495Z,999.6
2022-10-24T03:50:17.567Z,999.6
2022-10-24T03:51:20.361Z,999.6
2022-10-24T03:52:24.088Z,999.6
2022-10-24T03:53:27.797Z,999.5
2022-10-24T03:54:31.143Z,999.6
2022-10-24T03:55:34.543Z,999.6
2022-10-24T03:56:38.106Z,999.6
2022-10-24T03:57:40.822Z,999.5
2022-10-24T03:58:44.602Z,999.5
2022-10-24T03:59:47.469Z,999.5
2022-10-24T04:00:50.771Z,999.5
2022-10-24T04:01:53.974Z,999.5
2022-10-24T04:02:57.277Z,999.6
2022-10-24T04:03:59.876Z,999.5
2022-10-24T04:05:03.299Z,999.6
2022-10-24T04:06:06.375Z,999.6
2022-10-24T04:07:10.068Z,999.6
2022-10-24T04:08:12.380Z,999.6
2022-10-24T04:09:15.183Z,999.6
2022-10-24T04:10:18.170Z,999.6
2022-10-24T04:11:21.898Z,999.6
2022-10-24T04:12:25.118Z,999.6
2022-10-24T04:13:28.162Z,999.6
2022-10-24T04:14:31.424Z,999.6
2022-10-24T04:15:34.390Z,999.6
2022-10-24T04:16:37.491Z,999.6
2022-10-24T04:17:40.911Z,999.6
2022-10-24T04:18:45.197Z,999.6
2022-10-24T04:19:47.869Z,999.5
2022-10-24T04:20:50.410Z,999.5
2022-10-24T04:21:53.927Z,999.5
2022-10-24T04:23:00.013Z,999.6
2022-10-24T04:24:07.244Z,999.6
2022-10-24T04:25:10.570Z,999.6
2022-10-24T04:26:13.708Z,999.6
2022-10-24T04:27:17.242Z,999.5
2022-10-24T04:28:20.679Z,999.5
2022-10-24T04:29:24.191Z,999.5
2022-10-24T04:30:26.925Z,999.5
2022-10-24T04:31:30.029Z,999.5
2022-10-24T04:32:33.639Z,999.4
2022-10-24T04:33:36.233Z,999.5
2022-10-24T04:34:38.747Z,999.4
2022-10-24T04:35:40.988Z,999.4
2022-10-24T04:36:43.694Z,999.4
2022-10-24T04:37:46.495Z,999.5
2022-10-24T04:38:49.442Z,999.5
2022-10-24T04:39:53.050Z,999.5
2022-10-24T04:40:55.846Z,999.5
2022-10-24T04:41:58.443Z,999.6
2022-10-24T04:43:02.133Z,999.6
2022-10-24T04:44:06.267Z,999.5
2022-10-24T04:45:09.329Z,999.5
2022-10-24T04:46:12.137Z,999.5
2022-10-24T04:47:15.508Z,999.5
2022-10-24T04:48:18.456Z,999.5
2022-10-24T04:49:21.137Z,999.5
2022-10-24T04:50:24.134Z,999.5
2022-10-24T04:51:26.726Z,999.5
2022-10-24T04:52:29.711Z,999.5
2022-10-24T04:53:32.220Z,999.5
2022-10-24T04:54:35.504Z,999.5
2022-10-24T04:56:40.706Z,999.6
2022-10-24T04:57:44.293Z,999.6
2022-10-24T04:58:49.296Z,999.6
2022-10-24T04:59:53.583Z,999.5
2022-10-24T05:00:56.417Z,999.5
2022-10-24T05:01:59.672Z,999.5
2022-10-24T05:03:03.076Z,999.5
2022-10-24T05:04:06.247Z,999.5
2022-10-24T05:05:09.326Z,999.5
2022-10-24T05:06:12.156Z,999.5
2022-10-24T05:07:15.158Z,999.5
2022-10-24T05:08:17.863Z,999.5
2022-10-24T05:09:20.443Z,999.4
2022-10-24T05:10:22.673Z,999.4
2022-10-24T05:11:25.663Z,999.4
2022-10-24T05:12:28.725Z,999.4
2022-10-24T05:13:36.717Z,999.5
2022-10-24T05:14:40.068Z,999.4
2022-10-24T05:15:43.888Z,999.5
2022-10-24T05:16:46.808Z,999.4
2022-10-24T05:17:49.576Z,999.4
2022-10-24T05:18:52.093Z,999.3
2022-10-24T05:19:55.227Z,999.2
2022-10-24T05:20:58.299Z,999.3
2022-10-24T05:22:01.554Z,999.3
2022-10-24T05:23:12.811Z,999.3
2022-10-24T05:24:15.321Z,999.3
2022-10-24T05:25:17.475Z,999.3
2022-10-24T05:26:19.734Z,999.3
2022-10-24T05:27:22.804Z,999.3
2022-10-24T05:28:26.353Z,999.4
2022-10-24T05:29:29.883Z,999.3
2022-10-24T05:30:33.534Z,999.3
2022-10-24T05:31:37.292Z,999.4
2022-10-24T05:32:40.156Z,999.5
2022-10-24T05:33:43.107Z,999.5
2022-10-24T05:34:46.835Z,999.5
2022-10-24T05:35:49.923Z,999.5
2022-10-24T05:36:51.969Z,999.5
2022-10-24T05:37:55.033Z,999.5
2022-10-24T05:38:57.277Z,999.5
2022-10-24T05:40:00.088Z,999.5
2022-10-24T05:41:03.436Z,999.5
2022-10-24T05:42:06.876Z,999.5
2022-10-24T05:43:09.461Z,999.5
2022-10-24T05:44:12.247Z,999.5
2022-10-24T05:45:15.642Z,999.6
2022-10-24T05:46:19.521Z,999.5
2022-10-24T05:47:26.944Z,999.6
2022-10-24T05:48:32.182Z,999.5
2022-10-24T05:49:34.728Z,999.5
2022-10-24T05:50:37.728Z,999.5
2022-10-24T05:51:41.727Z,999.5
2022-10-24T05:52:47.728Z,999.5
2022-10-24T05:53:50.527Z,999.5
2022-10-24T05:55:08.566Z,999.5
2022-10-24T05:56:17.260Z,999.5
2022-10-24T05:57:19.137Z,999.4
2022-10-24T05:58:21.931Z,999.4
2022-10-24T05:59:25.175Z,999.5
2022-10-24T06:00:27.712Z,999.5
2022-10-24T06:01:31.070Z,999.5
2022-10-24T06:02:35.568Z,999.4
2022-10-24T06:03:39.556Z,999.5
2022-10-24T06:04:42.934Z,999.5
2022-10-24T06:05:45.925Z,999.5
2022-10-24T06:06:49.107Z,999.5
2022-10-24T06:07:51.704Z,999.5
2022-10-24T06:08:54.221Z,999.5
2022-10-24T06:09:57.030Z,999.5
2022-10-24T06:10:59.747Z,999.6
2022-10-24T06:12:02.848Z,999.5
2022-10-24T06:13:05.645Z,999.6
2022-10-24T06:14:08.798Z,999.6
2022-10-24T06:15:11.787Z,999.6
2022-10-24T06:16:14.781Z,999.5
2022-10-24T06:17:18.229Z,999.6
2022-10-24T06:18:22.012Z,999.5
2022-10-24T06:19:24.715Z,999.5
2022-10-24T06:20:28.587Z,999.5
2022-10-24T06:21:31.421Z,999.4
2022-10-24T06:22:34.256Z,999.5
2022-10-24T06:23:37.257Z,999.4
2022-10-24T06:24:40.777Z,999.4
2022-10-24T06:25:43.395Z,999.4
2022-10-24T06:26:46.769Z,999.4
2022-10-24T06:27:50.186Z,999.4
2022-10-24T06:28:52.696Z,999.5
2022-10-24T06:29:56.228Z,999.5
2022-10-24T06:30:59.398Z,999.5
2022-10-24T06:32:02.465Z,999.5
2022-10-24T06:33:06.215Z,999.5
2022-10-24T06:34:09.837Z,999.4
2022-10-24T06:35:12.270Z,999.5
2022-10-24T06:36:15.435Z,999.5
2022-10-24T06:37:18.494Z,999.5
2022-10-24T06:38:21.552Z,999.5
2022-10-24T06:39:24.696Z,999.4
2022-10-24T06:40:28.011Z,999.4
2022-10-24T06:41:31.275Z,999.4
2022-10-24T06:42:34.449Z,999.4
2022-10-24T06:43:37.526Z,999.4
2022-10-24T06:44:40.664Z,999.4
2022-10-24T06:45:43.745Z,999.5
2022-10-24T06:46:47.518Z,999.4
2022-10-24T06:47:54.758Z,999.5
2022-10-24T06:48:59.905Z,999.4
2022-10-24T06:50:03.658Z,999.4
2022-10-24T06:51:06.652Z,999.4
2022-10-24T06:52:09.346Z,999.4
2022-10-24T06:53:13.398Z,999.4
2022-10-24T06:54:15.901Z,999.5
2022-10-24T06:55:18.797Z,999.5
2022-10-24T06:56:21.854Z,999.5
2022-10-24T06:57:24.361Z,999.5
2022-10-24T06:58:28.042Z,999.5
2022-10-24T06:59:31.522Z,999.5
2022-10-24T07:00:34.057Z,999.5
2022-10-24T07:01:36.497Z,999.5
2022-10-24T07:02:40.211Z,999.5
2022-10-24T07:03:43.409Z,999.5
2022-10-24T07:04:46.961Z,999.5
2022-10-24T07:05:50.475Z,999.6
2022-10-24T07:06:53.851Z,999.5
2022-10-24T07:07:56.575Z,999.5
2022-10-24T07:09:00.024Z,999.5
2022-10-24T07:10:02.897Z,999.5
2022-10-24T07:11:05.609Z,999.5
2022-10-24T07:12:09.069Z,999.5
2022-10-24T07:13:12.578Z,999.6
2022-10-24T07:14:15.377Z,999.5
2022-10-24T07:15:18.747Z,999.5
2022-10-24T07:16:21.742Z,999.5
2022-10-24T07:17:25.464Z,999.5
2022-10-24T07:18:28.178Z,999.5
2022-10-24T07:19:37.263Z,999.6
2022-10-24T07:20:41.211Z,999.5
2022-10-24T07:21:44.931Z,999.6
2022-10-24T07:22:48.338Z,999.6
2022-10-24T07:23:51.791Z,999.5
2022-10-24T07:24:54.863Z,999.6
2022-10-24T07:25:57.704Z,999.6
2022-10-24T07:27:00.577Z,999.7
2022-10-24T07:28:04.002Z,999.6
2022-10-24T07:29:06.999Z,999.6
2022-10-24T07:30:10.801Z,999.6
2022-10-24T07:31:14.217Z,999.6
2022-10-24T07:32:17.490Z,999.6
2022-10-24T07:33:20.272Z,999.7
2022-10-24T07:34:23.401Z,999.7
2022-10-24T07:35:26.176Z,999.7
2022-10-24T07:36:29.961Z,999.7
2022-10-24T07:37:34.086Z,999.7
2022-10-24T07:38:37.259Z,999.8
2022-10-24T07:39:41.037Z,999.7
2022-10-24T07:40:44.449Z,999.7
2022-10-24T07:41:47.632Z,999.7
2022-10-24T07:42:51.173Z,999.7
2022-10-24T07:43:54.619Z,999.7
2022-10-24T07:44:57.710Z,999.7
2022-10-24T07:47:04.082Z,999.8
2022-10-24T07:48:06.711Z,999.7
2022-10-24T07:49:09.851Z,999.7
2022-10-24T07:50:13.116Z,999.7
2022-10-24T07:51:15.930Z,999.8
2022-10-24T07:52:19.428Z,999.8
2022-10-24T07:53:22.633Z,999.7
2022-10-24T07:54:25.978Z,999.7
2022-10-24T07:55:31.457Z,999.7
2022-10-24T07:56:34.566Z,999.8
2022-10-24T07:57:37.823Z,999.6
2022-10-24T07:58:41.297Z,999.7
2022-10-24T07:59:43.803Z,999.7
2022-10-24T08:00:47.006Z,999.7
2022-10-24T08:01:49.484Z,999.7
2022-10-24T08:02:52.632Z,999.7
2022-10-24T08:03:55.356Z,999.7
2022-10-24T08:04:58.229Z,999.7
2022-10-24T08:06:02.234Z,999.6
2022-10-24T08:07:05.317Z,999.6
2022-10-24T08:08:38.705Z,999.6
2022-10-24T08:09:44.306Z,999.7
2022-10-24T08:10:48.098Z,999.7
2022-10-24T08:11:51.870Z,999.5
2022-10-24T08:12:54.960Z,999.5
2022-10-24T08:13:58.103Z,999.5
2022-10-24T08:15:02.520Z,999.5
2022-10-24T08:16:06.160Z,999.5
2022-10-24T08:17:08.747Z,999.6
2022-10-24T08:18:11.448Z,999.5
2022-10-24T08:19:15.027Z,999.5
2022-10-24T08:20:18.057Z,999.5
2022-10-24T08:21:20.846Z,999.5
2022-10-24T08:22:24.116Z,999.5
2022-10-24T08:23:27.589Z,999.5
2022-10-24T08:24:30.387Z,999.6
2022-10-24T08:25:34.529Z,999.5
2022-10-24T08:26:38.643Z,999.6
2022-10-24T08:28:44.536Z,999.5
2022-10-24T08:29:47.348Z,999.6
2022-10-24T08:30:50.411Z,999.6
2022-10-24T08:31:53.127Z,999.6
2022-10-24T08:32:56.191Z,999.6
2022-10-24T08:33:59.608Z,999.6
2022-10-24T08:35:03.348Z,999.6
2022-10-24T08:36:05.785Z,999.6
2022-10-24T08:37:08.961Z,999.7
2022-10-24T08:38:12.133Z,999.6
2022-10-24T08:39:15.527Z,999.6
2022-10-24T08:40:18.903Z,999.6
2022-10-24T08:41:22.425Z,999.5
2022-10-24T08:42:25.917Z,999.5
2022-10-24T08:43:28.358Z,999.5
2022-10-24T08:44:30.966Z,999.6
2022-10-24T08:45:33.792Z,999.5
2022-10-24T08:46:36.652Z,999.5
2022-10-24T08:48:43.887Z,999.5
2022-10-24T08:49:50.855Z,999.5
2022-10-24T08:50:54.493Z,999.5
2022-10-24T08:51:57.425Z,999.5
2022-10-24T08:53:01.157Z,999.4
2022-10-24T08:54:03.423Z,999.5
2022-10-24T08:55:09.088Z,999.5
2022-10-24T08:56:52.348Z,999.4
2022-10-24T08:57:56.119Z,999.4
2022-10-24T08:58:59.490Z,999.4
2022-10-24T09:00:02.662Z,999.5
2022-10-24T09:01:05.516Z,999.4
2022-10-24T09:02:13.956Z,999.5
2022-10-24T09:03:37.108Z,999.5
2022-10-24T09:05:00.328Z,999.5
2022-10-24T09:06:03.393Z,999.6
2022-10-24T09:07:06.378Z,999.5
2022-10-24T09:08:09.469Z,999.5
2022-10-24T09:09:12.735Z,999.5
2022-10-24T09:10:16.487Z,999.5
2022-10-24T09:11:20.197Z,999.4
2022-10-24T09:12:23.423Z,999.4
2022-10-24T09:13:26.556Z,999.4
2022-10-24T09:14:30.060Z,999.4
2022-10-24T09:15:33.593Z,999.4
2022-10-24T09:16:36.836Z,999.5
2022-10-24T09:17:40.163Z,999.4
2022-10-24T09:18:43.484Z,999.5
2022-10-24T09:19:47.181Z,999.4
2022-10-24T09:20:51.048Z,999.5
2022-10-24T09:21:54.884Z,999.5
2022-10-24T09:22:57.601Z,999.5
2022-10-24T09:24:00.711Z,999.5
2022-10-24T09:25:04.467Z,999.4
2022-10-24T09:26:07.955Z,999.5
2022-10-24T09:27:11.144Z,999.5
2022-10-24T09:28:15.072Z,999.5
2022-10-24T09:29:18.017Z,999.5
2022-10-24T09:30:21.080Z,999.5
2022-10-24T09:31:23.620Z,999.5
2022-10-24T09:32:26.901Z,999.5
2022-10-24T09:33:30.262Z,999.4
2022-10-24T09:34:33.675Z,999.5
2022-10-24T09:35:36.844Z,999.5
2022-10-24T09:36:39.627Z,999.5
2022-10-24T09:37:47.579Z,999.5
2022-10-24T09:38:51.245Z,999.5
2022-10-24T09:39:54.874Z,999.6
2022-10-24T09:40:58.557Z,999.5
2022-10-24T09:42:02.146Z,999.6
2022-10-24T09:43:05.138Z,999.5
2022-10-24T09:44:08.837Z,999.5
2022-10-24T09:45:12.311Z,999.5
2022-10-24T09:46:15.650Z,999.5
2022-10-24T09:48:27.480Z,999.5
2022-10-24T09:49:33.366Z,999.5
2022-10-24T09:50:37.028Z,999.5
2022-10-24T09:51:40.466Z,999.5
2022-10-24T09:52:43.690Z,999.6
2022-10-24T09:53:47.040Z,999.5
2022-10-24T09:54:50.244Z,999.6
2022-10-24T09:55:53.771Z,999.5
2022-10-24T09:56:56.766Z,999.6
2022-10-24T09:58:00.269Z,999.6
2022-10-24T09:59:04.273Z,999.5
2022-10-24T10:00:07.776Z,999.6
2022-10-24T10:01:11.930Z,999.5
2022-10-24T10:02:16.064Z,999.6
2022-10-24T10:03:24.359Z,999.5
2022-10-24T10:04:27.164Z,999.6
2022-10-24T10:05:30.882Z,999.5
2022-10-24T10:06:34.065Z,999.5
2022-10-24T10:07:36.573Z,999.5
2022-10-24T10:08:39.920Z,999.4
2022-10-24T10:09:43.635Z,999.4
2022-10-24T10:10:46.976Z,999.6
2022-10-24T10:12:03.286Z,999.4
2022-10-24T10:13:07.216Z,999.5
2022-10-24T10:14:09.811Z,999.5
2022-10-24T10:15:13.596Z,999.4
2022-10-24T10:16:16.710Z,999.4
2022-10-24T10:17:19.870Z,999.4
2022-10-24T10:18:23.062Z,999.4
2022-10-24T10:19:26.133Z,999.3
2022-10-24T10:20:29.085Z,999.4
2022-10-24T10:21:31.522Z,999.3
2022-10-24T10:22:34.386Z,999.3
2022-10-24T10:23:37.744Z,999.4
2022-10-24T10:24:41.184Z,999.3
2022-10-24T10:25:43.704Z,999.3
2022-10-24T10:26:46.506Z,999.3
2022-10-24T10:27:49.021Z,999.4
2022-10-24T10:28:52.690Z,999.4
2022-10-24T10:29:55.497Z,999.4
2022-10-24T10:30:59.339Z,999.3
2022-10-24T10:32:02.460Z,999.4
2022-10-24T10:33:05.617Z,999.4
2022-10-24T10:34:08.971Z,999.3
2022-10-24T10:35:11.964Z,999.3
2022-10-24T10:36:14.640Z,999.3
2022-10-24T10:37:18.300Z,999.3
2022-10-24T10:38:21.722Z,999.3
2022-10-24T10:39:24.902Z,999.3
2022-10-24T10:40:27.815Z,999.4
2022-10-24T10:41:30.762Z,999.4
2022-10-24T10:42:34.195Z,999.3
2022-10-24T10:43:37.636Z,999.3
2022-10-24T10:44:41.096Z,999.3
2022-10-24T10:45:43.809Z,999.3
2022-10-24T10:46:47.663Z,999.3
2022-10-24T10:47:50.880Z,999.3
2022-10-24T10:48:53.204Z,999.2
2022-10-24T10:49:55.621Z,999.2
2022-10-24T10:50:58.052Z,999.2
2022-10-24T10:52:06.972Z,999.2
2022-10-24T10:53:09.506Z,999.1
2022-10-24T10:54:12.961Z,999.3
2022-10-24T10:55:15.529Z,999.2
2022-10-24T10:56:18.666Z,999.2
2022-10-24T10:57:22.314Z,999.2
2022-10-24T10:58:31.465Z,999.2
2022-10-24T10:59:34.852Z,999.2
2022-10-24T11:00:38.537Z,999.1
2022-10-24T11:01:41.929Z,999.1
2022-10-24T11:02:52.819Z,999.1
2022-10-24T11:03:58.121Z,999.2
2022-10-24T11:05:02.117Z,999.1
2022-10-24T11:06:05.111Z,999.1
2022-10-24T11:07:08.335Z,999
2022-10-24T11:08:13.783Z,999.1
2022-10-24T11:09:21.974Z,999.1
2022-10-24T11:10:24.764Z,999
2022-10-24T11:11:27.834Z,999.1
2022-10-24T11:12:30.614Z,999.1
2022-10-24T11:13:34.845Z,999.1
2022-10-24T11:14:38.078Z,999
2022-10-24T11:15:41.190Z,999
2022-10-24T11:16:44.546Z,999.1
2022-10-24T11:17:48.680Z,999
2022-10-24T11:18:52.764Z,999.1
2022-10-24T11:19:55.960Z,999
2022-10-24T11:20:59.053Z,999
2022-10-24T11:22:02.114Z,999.1
2022-10-24T11:23:05.263Z,999
2022-10-24T11:24:13.437Z,999
2022-10-24T11:25:17.368Z,999
2022-10-24T11:26:21.036Z,999
2022-10-24T11:27:24.026Z,999
2022-10-24T11:28:26.931Z,999
2022-10-24T11:29:30.097Z,999.1
2022-10-24T11:30:33.522Z,999
2022-10-24T11:31:44.427Z,999.1
2022-10-24T11:32:48.155Z,999
2022-10-24T11:33:52.041Z,999
2022-10-24T11:34:55.740Z,999
2022-10-24T11:35:59.439Z,999
2022-10-24T11:37:02.776Z,999
2022-10-24T11:38:05.765Z,999
2022-10-24T11:39:09.292Z,999
2022-10-24T11:40:13.143Z,998.9
2022-10-24T11:41:17.853Z,998.9
2022-10-24T11:42:21.184Z,999
2022-10-24T11:43:24.648Z,998.9
2022-10-24T11:44:27.842Z,998.9
2022-10-24T11:45:31.458Z,998.9
2022-10-24T11:46:34.642Z,998.9
2022-10-24T11:47:37.292Z,998.9
2022-10-24T11:48:40.630Z,998.9
2022-10-24T11:49:43.416Z,998.9
2022-10-24T11:50:46.723Z,998.9
2022-10-24T11:51:50.293Z,998.8
2022-10-24T11:52:53.391Z,999
2022-10-24T11:53:56.463Z,998.9
2022-10-24T11:54:59.902Z,998.9
2022-10-24T11:56:03.328Z,998.9
2022-10-24T11:57:06.809Z,998.9
2022-10-24T11:58:09.786Z,998.9
2022-10-24T11:59:13.141Z,998.9
2022-10-24T12:00:16.605Z,998.9
2022-10-24T12:01:19.195Z,998.9
2022-10-24T12:02:22.739Z,998.8
2022-10-24T12:03:26.374Z,998.9
2022-10-24T12:04:30.076Z,998.9
2022-10-24T12:05:33.273Z,998.8
2022-10-24T12:06:37.004Z,999
2022-10-24T12:07:39.965Z,998.9
2022-10-24T12:08:43.109Z,998.9
2022-10-24T12:09:46.773Z,999
2022-10-24T12:10:50.170Z,999
2022-10-24T12:11:54.479Z,999
2022-10-24T12:12:57.410Z,999
2022-10-24T12:14:00.634Z,998.9
2022-10-24T12:15:04.722Z,999
2022-10-24T12:16:07.183Z,999.1
2022-10-24T12:17:10.325Z,999.1
2022-10-24T12:18:13.963Z,999.1
2022-10-24T12:19:17.436Z,999.1
2022-10-24T12:20:21.124Z,999.1
2022-10-24T12:21:26.519Z,999.1
2022-10-24T12:22:30.186Z,999
2022-10-24T12:23:33.964Z,999.1
2022-10-24T12:24:37.415Z,999.1
2022-10-24T12:25:40.876Z,999.1
2022-10-24T12:26:50.822Z,999.1
2022-10-24T12:27:53.424Z,999.1
2022-10-24T12:28:56.522Z,999.2
2022-10-24T12:29:59.700Z,999.1
2022-10-24T12:31:02.763Z,999.2
2022-10-24T12:32:05.560Z,999.1
2022-10-24T12:33:08.640Z,999.1
2022-10-24T12:34:12.071Z,999.1
2022-10-24T12:35:31.686Z,999.1
2022-10-24T12:36:34.618Z,999.1
2022-10-24T12:37:39.556Z,999.1
2022-10-24T12:38:49.403Z,999
2022-10-24T12:39:58.712Z,999
2022-10-24T12:41:01.854Z,998.9
2022-10-24T12:42:04.845Z,999
2022-10-24T12:43:07.393Z,998.9
2022-10-24T12:44:10.457Z,998.9
2022-10-24T12:45:13.539Z,999.1
2022-10-24T12:46:23.368Z,999
2022-10-24T12:47:26.836Z,999.1
2022-10-24T12:48:30.005Z,999
2022-10-24T12:49:32.719Z,999.1
2022-10-24T12:50:36.527Z,999
2022-10-24T12:51:38.827Z,999
2022-10-24T12:52:43.111Z,999
2022-10-24T12:53:47.663Z,999
2022-10-24T12:54:51.164Z,999
2022-10-24T12:55:54.572Z,999
2022-10-24T12:56:56.727Z,999
2022-10-24T12:57:59.794Z,999
2022-10-24T12:59:02.501Z,999
2022-10-24T13:00:05.562Z,999
2022-10-24T13:01:09.419Z,999
2022-10-24T13:02:13.432Z,999
2022-10-24T13:03:17.424Z,999
2022-10-24T13:04:20.772Z,999
2022-10-24T13:05:23.550Z,998.9
2022-10-24T13:06:27.105Z,998.9
2022-10-24T13:07:30.195Z,998.9
2022-10-24T13:08:34.246Z,998.9
2022-10-24T13:09:37.054Z,998.9
2022-10-24T13:10:39.907Z,998.9
2022-10-24T13:11:43.251Z,998.9
2022-10-24T13:12:46.779Z,998.9
2022-10-24T13:13:54.932Z,998.9
2022-10-24T13:14:58.524Z,998.9
2022-10-24T13:16:01.955Z,998.9
2022-10-24T13:17:04.472Z,998.9
2022-10-24T13:18:08.027Z,999
2022-10-24T13:19:11.645Z,998.9
2022-10-24T13:20:14.168Z,998.9
2022-10-24T13:21:17.248Z,999
2022-10-24T13:22:20.928Z,999
2022-10-24T13:23:24.297Z,999
2022-10-24T13:24:27.850Z,999
2022-10-24T13:25:30.913Z,999.1
2022-10-24T13:26:33.745Z,999.1
2022-10-24T13:27:37.161Z,999
2022-10-24T13:28:40.228Z,999
2022-10-24T13:29:43.302Z,999
2022-10-24T13:30:50.109Z,999.1
2022-10-24T13:31:53.517Z,999.1
2022-10-24T13:32:56.578Z,999.1
2022-10-24T13:33:59.571Z,999.1
2022-10-24T13:35:03.179Z,999.1
2022-10-24T13:36:06.041Z,999
2022-10-24T13:37:09.388Z,999
2022-10-24T13:38:13.280Z,999.1
2022-10-24T13:39:16.603Z,999.1
2022-10-24T13:40:20.044Z,999.1
2022-10-24T13:41:23.478Z,999.2
2022-10-24T13:42:26.361Z,999.2
2022-10-24T13:43:29.265Z,999.2
2022-10-24T13:44:32.129Z,999.2
2022-10-24T13:45:34.851Z,999.2
2022-10-24T13:46:37.771Z,999.2